sensor_id;sensor_type;location;lat;lon;timestamp;P1;durP1;ratioP1;P2;durP2;ratioP2
49852;SDS011;35751;48.072;11.688;2023-07-02T00:01:02;5.68;;;2.65;;
49852;SDS011;35751;48.072;11.688;2023-07-02T00:03:27;4.22;;;2.97;;
49852;SDS011;35751;48.072;11.688;2023-07-02T00:05:53;4.05;;;2.80;;
49852;SDS011;35751;48.072;11.688;2023-07-02T00:08:19;2.45;;;2.25;;
49852;SDS011;35751;48.072;11.688;2023-07-02T00:10:46;2.92;;;2.63;;
49852;SDS011;35751;48.072;11.688;2023-07-02T00:13:11;2.90;;;2.55;;
49852;SDS011;35751;48.072;11.688;2023-07-02T00:15:37;3.97;;;2.83;;
49852;SDS011;35751;48.072;11.688;2023-07-02T00:18:02;3.97;;;2.90;;
49852;SDS011;35751;48.072;11.688;2023-07-02T00:20:27;3.10;;;2.42;;
49852;SDS011;35751;48.072;11.688;2023-07-02T00:22:53;4.07;;;3.50;;
49852;SDS011;35751;48.072;11.688;2023-07-02T00:25:19;3.42;;;2.70;;
49852;SDS011;35751;48.072;11.688;2023-07-02T00:27:47;4.18;;;3.15;;
49852;SDS011;35751;48.072;11.688;2023-07-02T00:30:13;3.28;;;2.45;;
49852;SDS011;35751;48.072;11.688;2023-07-02T00:32:39;5.20;;;2.83;;
49852;SDS011;35751;48.072;11.688;2023-07-02T00:35:04;4.18;;;2.78;;
49852;SDS011;35751;48.072;11.688;2023-07-02T00:37:30;6.13;;;4.07;;
49852;SDS011;35751;48.072;11.688;2023-07-02T00:39:55;6.43;;;2.67;;
49852;SDS011;35751;48.072;11.688;2023-07-02T00:42:20;5.00;;;2.83;;
49852;SDS011;35751;48.072;11.688;2023-07-02T00:44:48;5.63;;;2.50;;
49852;SDS011;35751;48.072;11.688;2023-07-02T00:47:13;5.50;;;2.65;;
49852;SDS011;35751;48.072;11.688;2023-07-02T00:49:39;3.40;;;3.00;;
49852;SDS011;35751;48.072;11.688;2023-07-02T00:52:04;3.75;;;3.08;;
49852;SDS011;35751;48.072;11.688;2023-07-02T00:54:30;4.00;;;2.53;;
49852;SDS011;35751;48.072;11.688;2023-07-02T00:56:56;7.47;;;2.90;;
49852;SDS011;35751;48.072;11.688;2023-07-02T00:59:21;3.78;;;2.83;;
49852;SDS011;35751;48.072;11.688;2023-07-02T01:01:49;8.63;;;3.30;;
49852;SDS011;35751;48.072;11.688;2023-07-02T01:04:17;3.92;;;2.90;;
49852;SDS011;35751;48.072;11.688;2023-07-02T01:06:43;3.90;;;2.80;;
49852;SDS011;35751;48.072;11.688;2023-07-02T01:09:09;4.38;;;3.00;;
49852;SDS011;35751;48.072;11.688;2023-07-02T01:14:54;3.40;;;2.40;;
49852;SDS011;35751;48.072;11.688;2023-07-02T01:16:58;3.33;;;2.92;;
49852;SDS011;35751;48.072;11.688;2023-07-02T01:22:07;5.30;;;2.90;;
49852;SDS011;35751;48.072;11.688;2023-07-02T01:24:33;3.55;;;2.60;;
49852;SDS011;35751;48.072;11.688;2023-07-02T01:27:02;3.72;;;2.97;;
49852;SDS011;35751;48.072;11.688;2023-07-02T01:29:28;3.63;;;2.35;;
49852;SDS011;35751;48.072;11.688;2023-07-02T01:31:54;5.10;;;2.83;;
49852;SDS011;35751;48.072;11.688;2023-07-02T01:34:20;2.75;;;2.38;;
49852;SDS011;35751;48.072;11.688;2023-07-02T01:36:45;2.58;;;2.10;;
49852;SDS011;35751;48.072;11.688;2023-07-02T01:39:10;3.88;;;2.10;;
49852;SDS011;35751;48.072;11.688;2023-07-02T01:41:44;5.22;;;2.00;;
49852;SDS011;35751;48.072;11.688;2023-07-02T01:44:10;2.85;;;2.05;;
49852;SDS011;35751;48.072;11.688;2023-07-02T01:46:35;2.40;;;1.90;;
49852;SDS011;35751;48.072;11.688;2023-07-02T01:49:01;2.22;;;1.98;;
49852;SDS011;35751;48.072;11.688;2023-07-02T01:51:26;2.80;;;2.33;;
49852;SDS011;35751;48.072;11.688;2023-07-02T01:53:52;3.13;;;2.00;;
49852;SDS011;35751;48.072;11.688;2023-07-02T01:56:17;1.75;;;1.40;;
49852;SDS011;35751;48.072;11.688;2023-07-02T01:58:42;1.70;;;1.55;;
49852;SDS011;35751;48.072;11.688;2023-07-02T02:01:07;1.92;;;1.75;;
49852;SDS011;35751;48.072;11.688;2023-07-02T02:03:33;1.85;;;1.63;;
49852;SDS011;35751;48.072;11.688;2023-07-02T02:05:58;1.90;;;1.60;;
49852;SDS011;35751;48.072;11.688;2023-07-02T02:08:26;2.15;;;1.90;;
49852;SDS011;35751;48.072;11.688;2023-07-02T02:10:52;1.65;;;1.50;;
49852;SDS011;35751;48.072;11.688;2023-07-02T02:13:17;1.92;;;1.52;;
49852;SDS011;35751;48.072;11.688;2023-07-02T02:15:42;2.67;;;1.48;;
49852;SDS011;35751;48.072;11.688;2023-07-02T02:18:08;2.10;;;1.50;;
49852;SDS011;35751;48.072;11.688;2023-07-02T02:20:33;1.90;;;1.67;;
49852;SDS011;35751;48.072;11.688;2023-07-02T02:22:58;1.73;;;1.50;;
49852;SDS011;35751;48.072;11.688;2023-07-02T02:25:24;1.73;;;1.63;;
49852;SDS011;35751;48.072;11.688;2023-07-02T02:27:52;2.03;;;1.58;;
49852;SDS011;35751;48.072;11.688;2023-07-02T02:30:17;2.35;;;1.50;;
49852;SDS011;35751;48.072;11.688;2023-07-02T02:32:43;1.63;;;1.52;;
49852;SDS011;35751;48.072;11.688;2023-07-02T02:35:08;1.85;;;1.65;;
49852;SDS011;35751;48.072;11.688;2023-07-02T02:37:34;2.17;;;1.98;;
49852;SDS011;35751;48.072;11.688;2023-07-02T02:40:01;2.58;;;1.80;;
49852;SDS011;35751;48.072;11.688;2023-07-02T02:42:27;2.63;;;1.73;;
49852;SDS011;35751;48.072;11.688;2023-07-02T02:44:52;2.10;;;1.65;;
49852;SDS011;35751;48.072;11.688;2023-07-02T02:47:17;1.73;;;1.60;;
49852;SDS011;35751;48.072;11.688;2023-07-02T02:49:43;1.83;;;1.60;;
49852;SDS011;35751;48.072;11.688;2023-07-02T02:52:08;3.00;;;1.88;;
49852;SDS011;35751;48.072;11.688;2023-07-02T02:54:34;2.00;;;1.75;;
49852;SDS011;35751;48.072;11.688;2023-07-02T02:57:01;3.25;;;1.58;;
49852;SDS011;35751;48.072;11.688;2023-07-02T02:59:27;1.63;;;1.42;;
49852;SDS011;35751;48.072;11.688;2023-07-02T03:01:52;2.83;;;1.40;;
49852;SDS011;35751;48.072;11.688;2023-07-02T03:04:18;1.88;;;1.48;;
49852;SDS011;35751;48.072;11.688;2023-07-02T03:06:43;2.30;;;1.90;;
49852;SDS011;35751;48.072;11.688;2023-07-02T03:09:08;1.83;;;1.63;;
49852;SDS011;35751;48.072;11.688;2023-07-02T03:11:37;3.30;;;1.75;;
49852;SDS011;35751;48.072;11.688;2023-07-02T03:14:02;2.38;;;1.70;;
49852;SDS011;35751;48.072;11.688;2023-07-02T03:16:28;2.40;;;1.45;;
49852;SDS011;35751;48.072;11.688;2023-07-02T03:18:53;3.75;;;2.40;;
49852;SDS011;35751;48.072;11.688;2023-07-02T03:21:18;2.28;;;1.88;;
49852;SDS011;35751;48.072;11.688;2023-07-02T03:23:44;2.30;;;1.73;;
49852;SDS011;35751;48.072;11.688;2023-07-02T03:26:09;2.40;;;1.85;;
49852;SDS011;35751;48.072;11.688;2023-07-02T03:28:34;2.22;;;1.90;;
49852;SDS011;35751;48.072;11.688;2023-07-02T03:31:00;2.85;;;1.90;;
49852;SDS011;35751;48.072;11.688;2023-07-02T03:33:25;2.38;;;2.00;;
49852;SDS011;35751;48.072;11.688;2023-07-02T03:35:51;2.05;;;1.65;;
49852;SDS011;35751;48.072;11.688;2023-07-02T03:38:16;2.53;;;2.03;;
49852;SDS011;35751;48.072;11.688;2023-07-02T03:40:41;3.17;;;2.45;;
49852;SDS011;35751;48.072;11.688;2023-07-02T03:43:07;3.80;;;2.17;;
49852;SDS011;35751;48.072;11.688;2023-07-02T03:45:32;4.13;;;2.42;;
49852;SDS011;35751;48.072;11.688;2023-07-02T03:47:57;3.30;;;2.10;;
49852;SDS011;35751;48.072;11.688;2023-07-02T03:50:23;4.55;;;2.38;;
49852;SDS011;35751;48.072;11.688;2023-07-02T03:52:48;4.10;;;2.38;;
49852;SDS011;35751;48.072;11.688;2023-07-02T03:55:13;4.05;;;2.67;;
49852;SDS011;35751;48.072;11.688;2023-07-02T03:57:39;4.72;;;3.50;;
49852;SDS011;35751;48.072;11.688;2023-07-02T04:00:04;3.80;;;2.38;;
49852;SDS011;35751;48.072;11.688;2023-07-02T04:02:30;4.10;;;2.67;;
49852;SDS011;35751;48.072;11.688;2023-07-02T04:04:56;3.95;;;2.53;;
49852;SDS011;35751;48.072;11.688;2023-07-02T04:07:21;6.57;;;2.75;;
49852;SDS011;35751;48.072;11.688;2023-07-02T04:09:46;3.75;;;2.85;;
49852;SDS011;35751;48.072;11.688;2023-07-02T04:12:12;3.53;;;2.70;;
49852;SDS011;35751;48.072;11.688;2023-07-02T04:14:37;4.68;;;2.67;;
49852;SDS011;35751;48.072;11.688;2023-07-02T04:17:02;5.10;;;3.35;;
49852;SDS011;35751;48.072;11.688;2023-07-02T04:19:31;4.57;;;2.70;;
49852;SDS011;35751;48.072;11.688;2023-07-02T04:21:57;3.92;;;2.92;;
49852;SDS011;35751;48.072;11.688;2023-07-02T04:24:22;5.03;;;3.58;;
49852;SDS011;35751;48.072;11.688;2023-07-02T04:26:47;3.03;;;2.72;;
49852;SDS011;35751;48.072;11.688;2023-07-02T04:29:14;5.10;;;3.65;;
49852;SDS011;35751;48.072;11.688;2023-07-02T04:31:39;4.22;;;2.80;;
49852;SDS011;35751;48.072;11.688;2023-07-02T04:34:04;3.70;;;2.97;;
49852;SDS011;35751;48.072;11.688;2023-07-02T04:36:31;4.00;;;3.10;;
49852;SDS011;35751;48.072;11.688;2023-07-02T04:38:56;4.85;;;2.95;;
49852;SDS011;35751;48.072;11.688;2023-07-02T04:41:22;4.47;;;3.15;;
49852;SDS011;35751;48.072;11.688;2023-07-02T04:43:47;5.22;;;3.58;;
49852;SDS011;35751;48.072;11.688;2023-07-02T04:46:13;6.18;;;3.60;;
49852;SDS011;35751;48.072;11.688;2023-07-02T04:48:38;5.40;;;3.50;;
49852;SDS011;35751;48.072;11.688;2023-07-02T04:51:04;6.68;;;3.53;;
49852;SDS011;35751;48.072;11.688;2023-07-02T04:53:32;5.55;;;3.17;;
49852;SDS011;35751;48.072;11.688;2023-07-02T04:55:57;6.50;;;3.85;;
49852;SDS011;35751;48.072;11.688;2023-07-02T04:58:23;5.80;;;3.67;;
49852;SDS011;35751;48.072;11.688;2023-07-02T05:00:48;6.10;;;3.90;;
49852;SDS011;35751;48.072;11.688;2023-07-02T05:03:14;4.00;;;3.38;;
49852;SDS011;35751;48.072;11.688;2023-07-02T05:05:39;5.75;;;4.22;;
49852;SDS011;35751;48.072;11.688;2023-07-02T05:08:04;5.80;;;3.63;;
49852;SDS011;35751;48.072;11.688;2023-07-02T05:10:30;6.70;;;4.10;;
49852;SDS011;35751;48.072;11.688;2023-07-02T05:12:58;7.03;;;3.75;;
49852;SDS011;35751;48.072;11.688;2023-07-02T05:15:24;5.10;;;3.65;;
49852;SDS011;35751;48.072;11.688;2023-07-02T05:17:49;5.45;;;3.53;;
49852;SDS011;35751;48.072;11.688;2023-07-02T05:20:14;10.52;;;4.25;;
49852;SDS011;35751;48.072;11.688;2023-07-02T05:22:40;6.05;;;4.03;;
49852;SDS011;35751;48.072;11.688;2023-07-02T05:25:05;5.82;;;4.78;;
49852;SDS011;35751;48.072;11.688;2023-07-02T05:27:33;7.93;;;4.45;;
49852;SDS011;35751;48.072;11.688;2023-07-02T05:29:59;5.28;;;3.85;;
49852;SDS011;35751;48.072;11.688;2023-07-02T05:32:24;6.65;;;4.72;;
49852;SDS011;35751;48.072;11.688;2023-07-02T05:34:49;6.03;;;4.63;;
49852;SDS011;35751;48.072;11.688;2023-07-02T05:37:15;6.07;;;4.35;;
49852;SDS011;35751;48.072;11.688;2023-07-02T05:39:40;5.30;;;4.38;;
49852;SDS011;35751;48.072;11.688;2023-07-02T05:42:05;5.00;;;4.40;;
49852;SDS011;35751;48.072;11.688;2023-07-02T05:44:31;6.43;;;4.30;;
49852;SDS011;35751;48.072;11.688;2023-07-02T05:46:59;6.15;;;4.20;;
49852;SDS011;35751;48.072;11.688;2023-07-02T05:49:24;6.40;;;4.60;;
49852;SDS011;35751;48.072;11.688;2023-07-02T05:51:51;6.38;;;3.97;;
49852;SDS011;35751;48.072;11.688;2023-07-02T05:54:16;6.90;;;4.90;;
49852;SDS011;35751;48.072;11.688;2023-07-02T05:56:42;6.90;;;4.05;;
49852;SDS011;35751;48.072;11.688;2023-07-02T05:59:07;7.90;;;5.10;;
49852;SDS011;35751;48.072;11.688;2023-07-02T06:01:33;6.38;;;4.93;;
49852;SDS011;35751;48.072;11.688;2023-07-02T06:03:58;4.82;;;4.30;;
49852;SDS011;35751;48.072;11.688;2023-07-02T06:06:23;6.30;;;3.95;;
49852;SDS011;35751;48.072;11.688;2023-07-02T06:08:51;6.57;;;5.43;;
49852;SDS011;35751;48.072;11.688;2023-07-02T06:11:17;6.32;;;4.93;;
49852;SDS011;35751;48.072;11.688;2023-07-02T06:13:42;6.10;;;4.50;;
49852;SDS011;35751;48.072;11.688;2023-07-02T06:16:08;7.68;;;4.53;;
49852;SDS011;35751;48.072;11.688;2023-07-02T06:18:33;6.38;;;4.80;;
49852;SDS011;35751;48.072;11.688;2023-07-02T06:20:58;9.75;;;4.88;;
49852;SDS011;35751;48.072;11.688;2023-07-02T06:23:24;5.57;;;4.28;;
49852;SDS011;35751;48.072;11.688;2023-07-02T06:25:49;5.20;;;4.25;;
49852;SDS011;35751;48.072;11.688;2023-07-02T06:28:18;11.20;;;5.82;;
49852;SDS011;35751;48.072;11.688;2023-07-02T06:30:44;5.18;;;4.25;;
49852;SDS011;35751;48.072;11.688;2023-07-02T06:33:09;4.50;;;3.80;;
49852;SDS011;35751;48.072;11.688;2023-07-02T06:35:34;6.05;;;4.13;;
49852;SDS011;35751;48.072;11.688;2023-07-02T06:38:00;7.88;;;4.70;;
49852;SDS011;35751;48.072;11.688;2023-07-02T06:40:25;4.70;;;3.92;;
49852;SDS011;35751;48.072;11.688;2023-07-02T06:42:51;5.82;;;3.95;;
49852;SDS011;35751;48.072;11.688;2023-07-02T06:45:16;5.57;;;4.47;;
49852;SDS011;35751;48.072;11.688;2023-07-02T06:47:41;6.43;;;4.03;;
49852;SDS011;35751;48.072;11.688;2023-07-02T06:50:07;4.40;;;3.80;;
49852;SDS011;35751;48.072;11.688;2023-07-02T06:52:32;5.40;;;3.78;;
49852;SDS011;35751;48.072;11.688;2023-07-02T06:54:58;9.82;;;4.53;;
49852;SDS011;35751;48.072;11.688;2023-07-02T06:57:28;5.53;;;3.28;;
49852;SDS011;35751;48.072;11.688;2023-07-02T06:59:57;6.57;;;4.55;;
49852;SDS011;35751;48.072;11.688;2023-07-02T07:02:24;7.38;;;4.18;;
49852;SDS011;35751;48.072;11.688;2023-07-02T07:04:49;5.68;;;4.38;;
49852;SDS011;35751;48.072;11.688;2023-07-02T07:07:15;8.02;;;4.53;;
49852;SDS011;35751;48.072;11.688;2023-07-02T07:09:46;4.88;;;4.07;;
49852;SDS011;35751;48.072;11.688;2023-07-02T07:12:11;5.93;;;3.90;;
49852;SDS011;35751;48.072;11.688;2023-07-02T07:14:37;5.90;;;4.07;;
49852;SDS011;35751;48.072;11.688;2023-07-02T07:17:02;6.78;;;4.13;;
49852;SDS011;35751;48.072;11.688;2023-07-02T07:19:28;6.20;;;3.95;;
49852;SDS011;35751;48.072;11.688;2023-07-02T07:21:53;6.75;;;4.18;;
49852;SDS011;35751;48.072;11.688;2023-07-02T07:24:18;5.07;;;3.58;;
49852;SDS011;35751;48.072;11.688;2023-07-02T07:26:44;6.78;;;3.75;;
49852;SDS011;35751;48.072;11.688;2023-07-02T07:29:10;5.47;;;4.20;;
49852;SDS011;35751;48.072;11.688;2023-07-02T07:31:35;5.07;;;3.92;;
49852;SDS011;35751;48.072;11.688;2023-07-02T07:34:00;6.38;;;4.53;;
49852;SDS011;35751;48.072;11.688;2023-07-02T07:36:26;5.80;;;4.63;;
49852;SDS011;35751;48.072;11.688;2023-07-02T07:38:51;6.80;;;4.82;;
49852;SDS011;35751;48.072;11.688;2023-07-02T07:41:16;8.40;;;5.20;;
49852;SDS011;35751;48.072;11.688;2023-07-02T07:43:44;6.40;;;4.60;;
49852;SDS011;35751;48.072;11.688;2023-07-02T07:46:09;8.20;;;4.68;;
49852;SDS011;35751;48.072;11.688;2023-07-02T07:48:38;7.03;;;4.55;;
49852;SDS011;35751;48.072;11.688;2023-07-02T07:51:03;6.50;;;4.15;;
49852;SDS011;35751;48.072;11.688;2023-07-02T07:53:28;6.93;;;5.50;;
49852;SDS011;35751;48.072;11.688;2023-07-02T07:55:54;6.80;;;4.40;;
49852;SDS011;35751;48.072;11.688;2023-07-02T07:58:19;4.88;;;4.10;;
49852;SDS011;35751;48.072;11.688;2023-07-02T08:00:44;5.60;;;4.18;;
49852;SDS011;35751;48.072;11.688;2023-07-02T08:03:10;9.00;;;4.82;;
49852;SDS011;35751;48.072;11.688;2023-07-02T08:12:18;7.03;;;4.70;;
49852;SDS011;35751;48.072;11.688;2023-07-02T08:14:44;5.78;;;4.03;;
49852;SDS011;35751;48.072;11.688;2023-07-02T08:17:09;6.30;;;4.30;;
49852;SDS011;35751;48.072;11.688;2023-07-02T08:19:34;6.03;;;4.47;;
49852;SDS011;35751;48.072;11.688;2023-07-02T08:22:00;6.82;;;4.38;;
49852;SDS011;35751;48.072;11.688;2023-07-02T08:24:25;7.28;;;4.15;;
49852;SDS011;35751;48.072;11.688;2023-07-02T08:26:50;7.97;;;4.72;;
49852;SDS011;35751;48.072;11.688;2023-07-02T08:29:16;4.95;;;4.00;;
49852;SDS011;35751;48.072;11.688;2023-07-02T08:31:41;6.65;;;4.40;;
49852;SDS011;35751;48.072;11.688;2023-07-02T08:34:08;6.05;;;4.50;;
49852;SDS011;35751;48.072;11.688;2023-07-02T08:36:33;5.22;;;3.92;;
49852;SDS011;35751;48.072;11.688;2023-07-02T08:38:59;5.15;;;4.30;;
49852;SDS011;35751;48.072;11.688;2023-07-02T08:41:24;4.55;;;3.70;;
49852;SDS011;35751;48.072;11.688;2023-07-02T08:43:49;5.32;;;3.50;;
49852;SDS011;35751;48.072;11.688;2023-07-02T08:46:16;5.30;;;3.75;;
49852;SDS011;35751;48.072;11.688;2023-07-02T08:48:42;5.40;;;3.70;;
49852;SDS011;35751;48.072;11.688;2023-07-02T08:51:07;5.53;;;4.20;;
49852;SDS011;35751;48.072;11.688;2023-07-02T08:53:33;4.78;;;3.53;;
49852;SDS011;35751;48.072;11.688;2023-07-02T08:55:59;6.40;;;3.90;;
49852;SDS011;35751;48.072;11.688;2023-07-02T08:58:25;4.75;;;3.83;;
49852;SDS011;35751;48.072;11.688;2023-07-02T09:01:04;4.88;;;3.67;;
49852;SDS011;35751;48.072;11.688;2023-07-02T09:03:32;3.95;;;3.20;;
49852;SDS011;35751;48.072;11.688;2023-07-02T09:05:58;4.97;;;3.75;;
49852;SDS011;35751;48.072;11.688;2023-07-02T09:08:27;4.05;;;3.20;;
49852;SDS011;35751;48.072;11.688;2023-07-02T09:10:53;3.63;;;2.58;;
49852;SDS011;35751;48.072;11.688;2023-07-02T09:13:19;3.88;;;3.15;;
49852;SDS011;35751;48.072;11.688;2023-07-02T09:15:44;5.00;;;3.30;;
49852;SDS011;35751;48.072;11.688;2023-07-02T09:18:17;4.28;;;2.90;;
49852;SDS011;35751;48.072;11.688;2023-07-02T09:20:46;3.60;;;3.30;;
49852;SDS011;35751;48.072;11.688;2023-07-02T09:23:11;4.53;;;3.10;;
49852;SDS011;35751;48.072;11.688;2023-07-02T09:25:37;3.35;;;2.55;;
49852;SDS011;35751;48.072;11.688;2023-07-02T09:28:21;5.95;;;3.38;;
49852;SDS011;35751;48.072;11.688;2023-07-02T09:30:51;4.60;;;3.22;;
49852;SDS011;35751;48.072;11.688;2023-07-02T09:33:20;3.63;;;2.63;;
49852;SDS011;35751;48.072;11.688;2023-07-02T09:35:46;5.57;;;3.00;;
49852;SDS011;35751;48.072;11.688;2023-07-02T09:38:12;3.22;;;2.80;;
49852;SDS011;35751;48.072;11.688;2023-07-02T09:40:45;2.70;;;2.47;;
49852;SDS011;35751;48.072;11.688;2023-07-02T09:43:12;3.38;;;2.83;;
49852;SDS011;35751;48.072;11.688;2023-07-02T09:45:41;2.97;;;2.45;;
49852;SDS011;35751;48.072;11.688;2023-07-02T09:48:08;5.18;;;2.55;;
49852;SDS011;35751;48.072;11.688;2023-07-02T09:50:34;5.20;;;3.05;;
49852;SDS011;35751;48.072;11.688;2023-07-02T09:53:03;3.90;;;2.95;;
49852;SDS011;35751;48.072;11.688;2023-07-02T09:55:28;4.30;;;3.08;;
49852;SDS011;35751;48.072;11.688;2023-07-02T09:57:54;3.58;;;2.90;;
49852;SDS011;35751;48.072;11.688;2023-07-02T10:00:19;2.50;;;1.95;;
49852;SDS011;35751;48.072;11.688;2023-07-02T10:02:48;3.10;;;2.10;;
49852;SDS011;35751;48.072;11.688;2023-07-02T10:08:12;3.65;;;2.28;;
49852;SDS011;35751;48.072;11.688;2023-07-02T10:10:38;3.00;;;2.70;;
49852;SDS011;35751;48.072;11.688;2023-07-02T10:13:04;4.45;;;2.63;;
49852;SDS011;35751;48.072;11.688;2023-07-02T10:15:30;4.47;;;2.90;;
49852;SDS011;35751;48.072;11.688;2023-07-02T10:20:37;4.22;;;3.28;;
49852;SDS011;35751;48.072;11.688;2023-07-02T10:23:04;4.68;;;3.50;;
49852;SDS011;35751;48.072;11.688;2023-07-02T10:25:31;4.03;;;3.35;;
49852;SDS011;35751;48.072;11.688;2023-07-02T10:27:58;5.78;;;4.22;;
49852;SDS011;35751;48.072;11.688;2023-07-02T10:30:45;4.72;;;4.13;;
49852;SDS011;35751;48.072;11.688;2023-07-02T10:33:11;5.72;;;4.10;;
49852;SDS011;35751;48.072;11.688;2023-07-02T10:35:37;6.45;;;4.35;;
49852;SDS011;35751;48.072;11.688;2023-07-02T10:38:03;9.05;;;4.88;;
49852;SDS011;35751;48.072;11.688;2023-07-02T10:40:29;6.53;;;4.90;;
49852;SDS011;35751;48.072;11.688;2023-07-02T10:42:55;8.05;;;6.07;;
49852;SDS011;35751;48.072;11.688;2023-07-02T10:45:21;8.65;;;4.30;;
49852;SDS011;35751;48.072;11.688;2023-07-02T10:47:56;9.20;;;5.90;;
49852;SDS011;35751;48.072;11.688;2023-07-02T10:50:22;9.23;;;5.22;;
49852;SDS011;35751;48.072;11.688;2023-07-02T10:52:48;9.65;;;5.07;;
49852;SDS011;35751;48.072;11.688;2023-07-02T10:55:20;9.50;;;5.75;;
49852;SDS011;35751;48.072;11.688;2023-07-02T10:57:47;11.95;;;6.45;;
49852;SDS011;35751;48.072;11.688;2023-07-02T11:00:13;9.35;;;5.80;;
49852;SDS011;35751;48.072;11.688;2023-07-02T11:02:38;11.32;;;6.03;;
49852;SDS011;35751;48.072;11.688;2023-07-02T11:05:04;9.30;;;6.75;;
49852;SDS011;35751;48.072;11.688;2023-07-02T11:10:08;9.68;;;6.28;;
49852;SDS011;35751;48.072;11.688;2023-07-02T11:12:34;7.28;;;5.15;;
49852;SDS011;35751;48.072;11.688;2023-07-02T11:15:15;12.55;;;7.63;;
49852;SDS011;35751;48.072;11.688;2023-07-02T11:17:44;9.90;;;6.38;;
49852;SDS011;35751;48.072;11.688;2023-07-02T11:20:10;9.38;;;5.68;;
49852;SDS011;35751;48.072;11.688;2023-07-02T11:22:36;10.68;;;6.13;;
49852;SDS011;35751;48.072;11.688;2023-07-02T11:25:12;9.68;;;6.72;;
49852;SDS011;35751;48.072;11.688;2023-07-02T11:27:39;10.63;;;6.13;;
49852;SDS011;35751;48.072;11.688;2023-07-02T11:30:05;8.85;;;5.88;;
49852;SDS011;35751;48.072;11.688;2023-07-02T11:32:31;12.23;;;6.10;;
49852;SDS011;35751;48.072;11.688;2023-07-02T11:34:56;10.90;;;6.03;;
49852;SDS011;35751;48.072;11.688;2023-07-02T11:37:22;11.18;;;6.50;;
49852;SDS011;35751;48.072;11.688;2023-07-02T11:39:47;9.15;;;5.55;;
49852;SDS011;35751;48.072;11.688;2023-07-02T11:42:13;9.40;;;5.88;;
49852;SDS011;35751;48.072;11.688;2023-07-02T11:44:38;8.48;;;5.97;;
49852;SDS011;35751;48.072;11.688;2023-07-02T11:47:03;10.60;;;6.95;;
49852;SDS011;35751;48.072;11.688;2023-07-02T11:49:29;12.35;;;6.90;;
49852;SDS011;35751;48.072;11.688;2023-07-02T11:51:55;8.90;;;5.85;;
49852;SDS011;35751;48.072;11.688;2023-07-02T11:54:20;8.05;;;6.13;;
49852;SDS011;35751;48.072;11.688;2023-07-02T11:56:45;10.52;;;6.97;;
49852;SDS011;35751;48.072;11.688;2023-07-02T11:59:14;11.23;;;7.45;;
49852;SDS011;35751;48.072;11.688;2023-07-02T12:01:39;11.38;;;7.88;;
49852;SDS011;35751;48.072;11.688;2023-07-02T12:04:05;9.95;;;8.00;;
49852;SDS011;35751;48.072;11.688;2023-07-02T12:06:32;12.10;;;7.53;;
49852;SDS011;35751;48.072;11.688;2023-07-02T12:08:57;14.13;;;7.63;;
49852;SDS011;35751;48.072;11.688;2023-07-02T12:11:23;11.88;;;8.05;;
49852;SDS011;35751;48.072;11.688;2023-07-02T12:13:48;11.38;;;8.07;;
49852;SDS011;35751;48.072;11.688;2023-07-02T12:16:13;11.95;;;8.75;;
49852;SDS011;35751;48.072;11.688;2023-07-02T12:18:39;10.77;;;8.05;;
49852;SDS011;35751;48.072;11.688;2023-07-02T12:21:04;10.43;;;7.43;;
49852;SDS011;35751;48.072;11.688;2023-07-02T12:23:29;14.32;;;8.73;;
49852;SDS011;35751;48.072;11.688;2023-07-02T12:25:55;16.02;;;9.23;;
49852;SDS011;35751;48.072;11.688;2023-07-02T12:28:20;11.23;;;7.68;;
49852;SDS011;35751;48.072;11.688;2023-07-02T12:30:45;13.00;;;9.30;;
49852;SDS011;35751;48.072;11.688;2023-07-02T12:33:11;13.18;;;9.23;;
49852;SDS011;35751;48.072;11.688;2023-07-02T12:35:36;14.40;;;8.88;;
49852;SDS011;35751;48.072;11.688;2023-07-02T12:38:02;14.32;;;8.82;;
49852;SDS011;35751;48.072;11.688;2023-07-02T12:40:28;14.13;;;9.85;;
49852;SDS011;35751;48.072;11.688;2023-07-02T12:42:54;14.68;;;8.98;;
49852;SDS011;35751;48.072;11.688;2023-07-02T12:45:19;12.68;;;8.65;;
49852;SDS011;35751;48.072;11.688;2023-07-02T12:47:44;11.40;;;8.25;;
49852;SDS011;35751;48.072;11.688;2023-07-02T12:50:10;14.23;;;8.90;;
49852;SDS011;35751;48.072;11.688;2023-07-02T12:52:36;15.30;;;9.43;;
49852;SDS011;35751;48.072;11.688;2023-07-02T12:55:02;12.70;;;9.43;;
49852;SDS011;35751;48.072;11.688;2023-07-02T12:57:28;14.45;;;10.48;;
49852;SDS011;35751;48.072;11.688;2023-07-02T12:59:53;15.13;;;9.32;;
49852;SDS011;35751;48.072;11.688;2023-07-02T13:02:19;13.27;;;8.85;;
49852;SDS011;35751;48.072;11.688;2023-07-02T13:04:45;15.43;;;9.95;;
49852;SDS011;35751;48.072;11.688;2023-07-02T13:07:11;13.02;;;8.57;;
49852;SDS011;35751;48.072;11.688;2023-07-02T13:09:36;14.88;;;9.35;;
49852;SDS011;35751;48.072;11.688;2023-07-02T13:12:01;13.35;;;9.15;;
49852;SDS011;35751;48.072;11.688;2023-07-02T13:14:27;13.88;;;9.23;;
49852;SDS011;35751;48.072;11.688;2023-07-02T13:16:53;14.32;;;8.98;;
49852;SDS011;35751;48.072;11.688;2023-07-02T13:19:18;15.27;;;9.60;;
49852;SDS011;35751;48.072;11.688;2023-07-02T13:21:43;14.70;;;10.25;;
49852;SDS011;35751;48.072;11.688;2023-07-02T13:24:10;14.55;;;9.75;;
49852;SDS011;35751;48.072;11.688;2023-07-02T13:26:36;15.63;;;10.02;;
49852;SDS011;35751;48.072;11.688;2023-07-02T13:29:01;16.65;;;9.93;;
49852;SDS011;35751;48.072;11.688;2023-07-02T13:31:26;15.00;;;9.80;;
49852;SDS011;35751;48.072;11.688;2023-07-02T13:33:52;14.32;;;9.63;;
49852;SDS011;35751;48.072;11.688;2023-07-02T13:36:17;16.33;;;9.75;;
49852;SDS011;35751;48.072;11.688;2023-07-02T13:38:43;14.02;;;8.82;;
49852;SDS011;35751;48.072;11.688;2023-07-02T13:41:08;16.50;;;9.70;;
49852;SDS011;35751;48.072;11.688;2023-07-02T13:43:33;15.55;;;9.23;;
49852;SDS011;35751;48.072;11.688;2023-07-02T13:45:59;13.57;;;9.63;;
49852;SDS011;35751;48.072;11.688;2023-07-02T13:48:24;15.68;;;9.77;;
49852;SDS011;35751;48.072;11.688;2023-07-02T13:50:49;12.10;;;8.50;;
49852;SDS011;35751;48.072;11.688;2023-07-02T13:53:15;13.07;;;8.70;;
49852;SDS011;35751;48.072;11.688;2023-07-02T13:55:40;16.95;;;10.10;;
49852;SDS011;35751;48.072;11.688;2023-07-02T13:58:06;17.90;;;10.82;;
49852;SDS011;35751;48.072;11.688;2023-07-02T14:00:31;14.75;;;9.90;;
49852;SDS011;35751;48.072;11.688;2023-07-02T14:02:56;14.77;;;9.60;;
49852;SDS011;35751;48.072;11.688;2023-07-02T14:05:22;16.13;;;9.13;;
49852;SDS011;35751;48.072;11.688;2023-07-02T14:07:48;14.25;;;10.27;;
49852;SDS011;35751;48.072;11.688;2023-07-02T14:10:13;16.30;;;9.77;;
49852;SDS011;35751;48.072;11.688;2023-07-02T14:12:40;14.05;;;10.68;;
49852;SDS011;35751;48.072;11.688;2023-07-02T14:15:06;15.90;;;10.00;;
49852;SDS011;35751;48.072;11.688;2023-07-02T14:17:31;13.40;;;10.30;;
49852;SDS011;35751;48.072;11.688;2023-07-02T14:19:57;13.30;;;10.00;;
49852;SDS011;35751;48.072;11.688;2023-07-02T14:22:22;14.95;;;10.13;;
49852;SDS011;35751;48.072;11.688;2023-07-02T14:24:48;17.13;;;9.93;;
49852;SDS011;35751;48.072;11.688;2023-07-02T14:27:13;16.02;;;9.68;;
49852;SDS011;35751;48.072;11.688;2023-07-02T14:29:38;15.25;;;10.20;;
49852;SDS011;35751;48.072;11.688;2023-07-02T14:32:04;15.68;;;11.07;;
49852;SDS011;35751;48.072;11.688;2023-07-02T14:34:30;16.05;;;9.93;;
49852;SDS011;35751;48.072;11.688;2023-07-02T14:36:55;15.10;;;10.63;;
49852;SDS011;35751;48.072;11.688;2023-07-02T14:39:21;16.90;;;10.75;;
49852;SDS011;35751;48.072;11.688;2023-07-02T14:41:47;16.38;;;11.02;;
49852;SDS011;35751;48.072;11.688;2023-07-02T14:44:13;14.63;;;10.48;;